createdAt,value
2023-03-15T00:00:13.578Z,1010.56
2023-03-15T00:01:13.876Z,1010.54
2023-03-15T00:02:13.203Z,1010.53
2023-03-15T00:03:13.172Z,1010.63
2023-03-15T00:04:13.034Z,1010.74
2023-03-15T00:05:13.104Z,1010.79
2023-03-15T00:06:13.161Z,1010.81
2023-03-15T00:07:13.088Z,1010.88
2023-03-15T00:08:13.385Z,1010.88
2023-03-15T00:09:13.520Z,1010.91
2023-03-15T00:10:13.723Z,1010.85
2023-03-15T00:11:13.593Z,1010.97
2023-03-15T00:12:13.738Z,1011.05
2023-03-15T00:13:13.857Z,1011.08
2023-03-15T00:14:13.698Z,1011.17
2023-03-15T00:15:13.720Z,1011.22
2023-03-15T00:16:13.875Z,1011.15
2023-03-15T00:17:12.796Z,1011.16
2023-03-15T00:18:13.987Z,1011.18
2023-03-15T00:19:12.845Z,1011.14
2023-03-15T00:20:13.922Z,1011.11
2023-03-15T00:21:13.287Z,1011.14
2023-03-15T00:22:13.478Z,1011.11
2023-03-15T00:23:13.537Z,1011.03
2023-03-15T00:24:13.485Z,1011.03
2023-03-15T00:25:14.123Z,1011.04
2023-03-15T00:26:13.205Z,1011.03
2023-03-15T00:27:13.453Z,1011.03
2023-03-15T00:28:13.396Z,1010.97
2023-03-15T00:29:13.452Z,1010.96
2023-03-15T00:30:13.535Z,1011.01
2023-03-15T00:31:13.514Z,1011.04
2023-03-15T00:32:13.361Z,1011.10
2023-03-15T00:33:13.215Z,1011.09
2023-03-15T00:34:13.308Z,1011.05
2023-03-15T00:35:13.453Z,1011.09
2023-03-15T00:36:13.628Z,1011.06
2023-03-15T00:37:13.568Z,1011.08
2023-03-15T00:38:13.795Z,1011.09
2023-03-15T00:39:14.094Z,1011.13
2023-03-15T00:40:13.246Z,1011.14
2023-03-15T00:41:13.276Z,1011.10
2023-03-15T00:42:18.313Z,1011.14
2023-03-15T00:43:13.285Z,1011.19
2023-03-15T00:44:13.233Z,1011.08
2023-03-15T00:45:13.166Z,1011.10
2023-03-15T00:46:13.095Z,1011.13
2023-03-15T00:47:13.601Z,1011.15
2023-03-15T00:48:13.694Z,1011.14
2023-03-15T00:49:13.741Z,1011.16
2023-03-15T00:50:13.664Z,1011.13
2023-03-15T00:51:13.573Z,1011.13
2023-03-15T00:52:13.489Z,1011.16
2023-03-15T00:53:13.417Z,1011.15
2023-03-15T00:54:13.654Z,1011.19
2023-03-15T00:55:13.540Z,1011.15
2023-03-15T00:56:13.522Z,1011.20
2023-03-15T00:57:13.424Z,1011.21
2023-03-15T00:58:13.430Z,1011.16
2023-03-15T00:59:13.581Z,1011.25
2023-03-15T01:00:13.455Z,1011.17
2023-03-15T01:01:13.547Z,1011.12
2023-03-15T01:02:13.561Z,1011.23
2023-03-15T01:03:13.685Z,1011.18
2023-03-15T01:04:14.049Z,1011.22
2023-03-15T01:05:12.936Z,1011.25
2023-03-15T01:06:13.161Z,1011.22
2023-03-15T01:07:13.126Z,1011.18
2023-03-15T01:08:13.161Z,1011.20
2023-03-15T01:09:13.269Z,1011.30
2023-03-15T01:10:13.113Z,1011.19
2023-03-15T01:11:13.584Z,1011.25
2023-03-15T01:12:13.513Z,1011.24
2023-03-15T01:13:13.417Z,1011.26
2023-03-15T01:14:13.804Z,1011.28
2023-03-15T01:15:13.756Z,1011.31
2023-03-15T01:16:13.808Z,1011.28
2023-03-15T01:17:13.670Z,1011.20
2023-03-15T01:18:13.544Z,1011.27
2023-03-15T01:19:13.360Z,1011.28
2023-03-15T01:20:13.236Z,1011.34
2023-03-15T01:21:13.093Z,1011.30
2023-03-15T01:22:13.407Z,1011.32
2023-03-15T01:23:13.750Z,1011.35
2023-03-15T01:24:13.848Z,1011.44
2023-03-15T01:25:14.119Z,1011.40
2023-03-15T01:26:12.986Z,1011.47
2023-03-15T01:27:17.973Z,1011.47
2023-03-15T01:28:12.831Z,1011.49
2023-03-15T01:29:13.767Z,1011.47
2023-03-15T01:30:13.747Z,1011.37
2023-03-15T01:31:13.992Z,1011.55
2023-03-15T01:32:12.838Z,1011.50
2023-03-15T01:33:13.030Z,1011.44
2023-03-15T01:34:13.069Z,1011.48
2023-03-15T01:35:13.135Z,1011.51
2023-03-15T01:36:13.069Z,1011.54
2023-03-15T01:37:12.918Z,1011.49
2023-03-15T01:38:13.325Z,1011.40
2023-03-15T01:39:13.230Z,1011.40
2023-03-15T01:40:13.214Z,1011.53
2023-03-15T01:41:13.135Z,1011.54
2023-03-15T01:42:12.991Z,1011.51
2023-03-15T01:43:12.999Z,1011.55
2023-03-15T01:44:13.041Z,1011.53
2023-03-15T01:45:12.981Z,1011.57
2023-03-15T01:46:12.813Z,1011.52
2023-03-15T01:47:13.811Z,1011.52
2023-03-15T01:48:13.785Z,1011.55
2023-03-15T01:49:13.964Z,1011.57
2023-03-15T01:50:12.870Z,1011.54
2023-03-15T01:51:14.032Z,1011.53
2023-03-15T01:52:12.934Z,1011.50
2023-03-15T01:53:12.970Z,1011.51
2023-03-15T01:54:13.737Z,1011.41
2023-03-15T01:55:13.836Z,1011.48
2023-03-15T01:56:13.689Z,1011.51
2023-03-15T01:57:13.792Z,1011.51
2023-03-15T01:58:13.883Z,1011.48
2023-03-15T01:59:12.887Z,1011.50
2023-03-15T02:00:13.081Z,1011.47
2023-03-15T02:01:13.586Z,1011.57
2023-03-15T02:02:13.820Z,1011.52
2023-03-15T02:03:13.792Z,1011.55
2023-03-15T02:04:13.981Z,1011.57
2023-03-15T02:05:13.283Z,1011.57
2023-03-15T02:06:13.399Z,1011.59
2023-03-15T02:07:13.312Z,1011.59
2023-03-15T02:08:13.383Z,1011.62
2023-03-15T02:09:13.768Z,1011.54
2023-03-15T02:10:13.708Z,1011.64
2023-03-15T02:11:13.696Z,1011.68
2023-03-15T02:12:13.608Z,1011.65
2023-03-15T02:13:14.575Z,1011.70
2023-03-15T02:14:13.797Z,1011.71
2023-03-15T02:15:13.810Z,1011.65
2023-03-15T02:16:13.913Z,1011.67
2023-03-15T02:17:12.842Z,1011.67
2023-03-15T02:18:13.749Z,1011.64
2023-03-15T02:19:13.629Z,1011.64
2023-03-15T02:20:18.569Z,1011.74
2023-03-15T02:21:13.543Z,1011.74
2023-03-15T02:22:13.717Z,1011.79
2023-03-15T02:23:13.873Z,1011.77
2023-03-15T02:24:12.978Z,1011.78
2023-03-15T02:25:13.029Z,1011.81
2023-03-15T02:26:12.913Z,1011.79
2023-03-15T02:27:12.882Z,1011.70
2023-03-15T02:28:13.345Z,1011.78
2023-03-15T02:29:13.316Z,1011.89
2023-03-15T02:30:13.212Z,1011.87
2023-03-15T02:31:13.276Z,1011.86
2023-03-15T02:32:13.196Z,1011.85
2023-03-15T02:33:13.333Z,1011.84
2023-03-15T02:34:13.211Z,1011.82
2023-03-15T02:35:13.319Z,1011.87
2023-03-15T02:36:13.277Z,1011.82
2023-03-15T02:37:13.102Z,1011.84
2023-03-15T02:38:13.167Z,1011.77
2023-03-15T02:39:13.358Z,1011.90
2023-03-15T02:40:13.389Z,1011.85
2023-03-15T02:41:13.432Z,1011.86
2023-03-15T02:42:13.559Z,1011.87
2023-03-15T02:43:13.554Z,1011.78
2023-03-15T02:44:13.594Z,1011.86
2023-03-15T02:45:13.682Z,1011.86
2023-03-15T02:46:18.862Z,1011.92
2023-03-15T02:47:12.717Z,1011.88
2023-03-15T02:48:13.981Z,1011.94
2023-03-15T02:49:12.881Z,1011.93
2023-03-15T02:50:18.822Z,1011.98
2023-03-15T02:51:13.916Z,1011.95
2023-03-15T02:52:12.968Z,1011.96
2023-03-15T02:53:13.421Z,1011.97
2023-03-15T02:54:13.462Z,1012.07
2023-03-15T02:55:13.545Z,1012.05
2023-03-15T02:56:13.405Z,1012.00
2023-03-15T02:57:13.373Z,1012.07
2023-03-15T02:58:13.295Z,1012.00
2023-03-15T02:59:13.383Z,1012.10
2023-03-15T03:00:13.293Z,1011.93
2023-03-15T03:01:13.443Z,1011.99
2023-03-15T03:02:13.835Z,1012.08
2023-03-15T03:03:13.956Z,1012.05
2023-03-15T03:04:13.208Z,1012.04
2023-03-15T03:05:18.124Z,1012.07
2023-03-15T03:06:13.088Z,1012.06
2023-03-15T03:07:13.376Z,1012.13
2023-03-15T03:08:13.320Z,1012.09
2023-03-15T03:09:13.220Z,1012.12
2023-03-15T03:10:13.289Z,1012.18
2023-03-15T03:11:13.194Z,1012.16
2023-03-15T03:12:13.611Z,1012.19
2023-03-15T03:13:13.759Z,1012.18
2023-03-15T03:14:14.091Z,1012.18
2023-03-15T03:15:13.191Z,1012.22
2023-03-15T03:16:13.377Z,1012.18
2023-03-15T03:17:13.640Z,1012.15
2023-03-15T03:18:13.504Z,1012.17
2023-03-15T03:19:13.477Z,1012.17
2023-03-15T03:20:13.626Z,1012.21
2023-03-15T03:21:13.566Z,1012.23
2023-03-15T03:22:13.479Z,1012.20
2023-03-15T03:23:13.600Z,1012.21
2023-03-15T03:24:13.555Z,1012.25
2023-03-15T03:25:13.764Z,1012.25
2023-03-15T03:26:13.820Z,1012.33
2023-03-15T03:27:13.783Z,1012.37
2023-03-15T03:28:13.864Z,1012.29
2023-03-15T03:29:13.883Z,1012.43
2023-03-15T03:30:13.778Z,1012.43
2023-03-15T03:31:13.996Z,1012.37
2023-03-15T03:32:12.933Z,1012.34
2023-03-15T03:33:13.216Z,1012.51
2023-03-15T03:34:13.408Z,1012.58
2023-03-15T03:35:15.884Z,1012.52
2023-03-15T03:36:13.238Z,1012.53
2023-03-15T03:37:13.216Z,1012.59
2023-03-15T03:38:13.218Z,1012.59
2023-03-15T03:39:13.639Z,1012.61
2023-03-15T03:40:13.520Z,1012.65
2023-03-15T03:41:13.332Z,1012.67
2023-03-15T03:42:13.405Z,1012.69
2023-03-15T03:43:13.225Z,1012.70
2023-03-15T03:44:13.200Z,1012.75
2023-03-15T03:45:13.140Z,1012.76
2023-03-15T03:46:13.208Z,1012.72
2023-03-15T03:47:13.340Z,1012.73
2023-03-15T03:48:13.537Z,1012.76
2023-03-15T03:49:13.531Z,1012.75
2023-03-15T03:50:13.361Z,1012.80
2023-03-15T03:51:13.314Z,1012.83
2023-03-15T03:52:13.189Z,1012.87
2023-03-15T03:53:13.604Z,1012.84
2023-03-15T03:54:14.573Z,1012.84
2023-03-15T03:55:13.664Z,1012.87
2023-03-15T03:56:13.600Z,1012.83
2023-03-15T03:57:13.651Z,1012.84
2023-03-15T03:58:13.630Z,1012.88
2023-03-15T03:59:13.559Z,1012.94
2023-03-15T04:00:13.365Z,1012.93
2023-03-15T04:01:13.401Z,1012.93
2023-03-15T04:02:13.519Z,1012.98
2023-03-15T04:03:13.751Z,1012.98
2023-03-15T04:04:13.807Z,1012.93
2023-03-15T04:05:13.708Z,1012.98
2023-03-15T04:06:13.611Z,1012.99
2023-03-15T04:07:16.615Z,1013.03
2023-03-15T04:08:12.982Z,1013.07
2023-03-15T04:09:12.836Z,1013.05
2023-03-15T04:10:14.161Z,1013.06
2023-03-15T04:11:13.184Z,1013.07
2023-03-15T04:12:13.523Z,1013.15
2023-03-15T04:13:13.509Z,1013.09
2023-03-15T04:14:13.982Z,1013.07
2023-03-15T04:15:12.963Z,1013.12
2023-03-15T04:16:13.517Z,1013.17
2023-03-15T04:17:13.807Z,1013.14
2023-03-15T04:18:13.838Z,1013.16
2023-03-15T04:19:14.053Z,1013.21
2023-03-15T04:20:13.269Z,1013.17
2023-03-15T04:21:13.474Z,1013.18
2023-03-15T04:22:13.560Z,1013.19
2023-03-15T04:23:13.505Z,1013.27
2023-03-15T04:24:13.446Z,1013.18
2023-03-15T04:25:13.531Z,1013.20
2023-03-15T04:26:13.612Z,1013.23
2023-03-15T04:27:13.673Z,1013.25
2023-03-15T04:28:13.633Z,1013.24
2023-03-15T04:29:13.528Z,1013.29
2023-03-15T04:30:13.434Z,1013.30
2023-03-15T04:31:13.389Z,1013.24
2023-03-15T04:32:13.417Z,1013.26
2023-03-15T04:33:13.441Z,1013.34
2023-03-15T04:34:13.356Z,1013.34
2023-03-15T04:35:13.260Z,1013.32
2023-03-15T04:36:13.508Z,1013.36
2023-03-15T04:37:13.766Z,1013.33
2023-03-15T04:38:13.912Z,1013.35
2023-03-15T04:39:12.868Z,1013.33
2023-03-15T04:40:13.842Z,1013.42
2023-03-15T04:41:13.801Z,1013.42
2023-03-15T04:42:13.837Z,1013.45
2023-03-15T04:43:13.879Z,1013.44
2023-03-15T04:44:12.976Z,1013.44
2023-03-15T04:45:13.027Z,1013.43
2023-03-15T04:46:12.912Z,1013.46
2023-03-15T04:47:12.772Z,1013.43
2023-03-15T04:48:13.687Z,1013.48
2023-03-15T04:49:13.673Z,1013.46
2023-03-15T04:50:13.686Z,1013.50
2023-03-15T04:51:13.624Z,1013.48
2023-03-15T04:52:13.573Z,1013.53
2023-03-15T04:53:13.571Z,1013.49
2023-03-15T04:54:13.775Z,1013.46
2023-03-15T04:55:13.981Z,1013.47
2023-03-15T04:56:12.901Z,1013.46
2023-03-15T04:57:13.076Z,1013.43
2023-03-15T04:58:13.141Z,1013.49
2023-03-15T04:59:13.352Z,1013.48
2023-03-15T05:00:13.509Z,1013.45
2023-03-15T05:01:13.465Z,1013.48
2023-03-15T05:02:13.746Z,1013.44
2023-03-15T05:03:13.716Z,1013.48
2023-03-15T05:04:13.598Z,1013.48
2023-03-15T05:05:14.000Z,1013.51
2023-03-15T05:06:13.268Z,1013.51
2023-03-15T05:07:13.592Z,1013.47
2023-03-15T05:08:13.782Z,1013.50
2023-03-15T05:09:13.997Z,1013.52
2023-03-15T05:10:12.945Z,1013.54
2023-03-15T05:11:13.022Z,1013.55
2023-03-15T05:12:13.089Z,1013.57
2023-03-15T05:13:13.104Z,1013.64
2023-03-15T05:14:13.063Z,1013.64
2023-03-15T05:15:13.166Z,1013.65
2023-03-15T05:16:13.199Z,1013.68
2023-03-15T05:17:13.199Z,1013.69
2023-03-15T05:18:13.454Z,1013.69
2023-03-15T05:19:13.328Z,1013.68
2023-03-15T05:20:13.811Z,1013.69
2023-03-15T05:21:14.237Z,1013.67
2023-03-15T05:22:13.472Z,1013.70
2023-03-15T05:23:13.537Z,1013.69
2023-03-15T05:24:13.459Z,1013.76
2023-03-15T05:25:13.787Z,1013.74
2023-03-15T05:26:13.846Z,1013.72
2023-03-15T05:27:13.809Z,1013.76
2023-03-15T05:28:13.835Z,1013.77
2023-03-15T05:29:14.247Z,1013.82
2023-03-15T05:30:13.727Z,1013.81
2023-03-15T05:31:13.852Z,1013.83
2023-03-15T05:32:13.949Z,1013.85
2023-03-15T05:33:13.267Z,1013.89
2023-03-15T05:34:13.225Z,1013.88
2023-03-15T05:35:13.385Z,1013.90
2023-03-15T05:36:13.533Z,1013.97
2023-03-15T05:37:13.653Z,1014.02
2023-03-15T05:38:13.778Z,1014.02
2023-03-15T05:39:13.842Z,1014.04
2023-03-15T05:40:13.785Z,1014.04
2023-03-15T05:41:13.649Z,1014.09
2023-03-15T05:42:13.493Z,1014.09
2023-03-15T05:43:13.402Z,1014.15
2023-03-15T05:44:13.486Z,1014.15
2023-03-15T05:45:13.746Z,1014.15
2023-03-15T05:46:13.775Z,1014.19
2023-03-15T05:47:14.265Z,1014.24
2023-03-15T05:48:13.297Z,1014.24
2023-03-15T05:49:13.639Z,1014.26
2023-03-15T05:50:13.563Z,1014.32
2023-03-15T05:51:13.476Z,1014.36
2023-03-15T05:52:13.367Z,1014.38
2023-03-15T05:53:13.275Z,1014.38
2023-03-15T05:54:13.257Z,1014.38
2023-03-15T05:55:13.389Z,1014.40
2023-03-15T05:56:13.332Z,1014.41
2023-03-15T05:57:13.330Z,1014.42
2023-03-15T05:58:13.362Z,1014.43
2023-03-15T05:59:13.523Z,1014.47
2023-03-15T06:00:13.528Z,1014.51
2023-03-15T06:01:13.821Z,1014.55
2023-03-15T06:02:13.710Z,1014.52
2023-03-15T06:03:13.690Z,1014.54
2023-03-15T06:04:13.639Z,1014.60
2023-03-15T06:05:13.640Z,1014.58
2023-03-15T06:07:13.804Z,1014.64
2023-03-15T06:08:18.977Z,1014.60
2023-03-15T06:09:13.390Z,1014.61
2023-03-15T06:10:13.294Z,1014.64
2023-03-15T06:11:13.569Z,1014.65
2023-03-15T06:12:13.722Z,1014.66
2023-03-15T06:13:14.788Z,1014.69
2023-03-15T06:14:13.470Z,1014.69
2023-03-15T06:15:13.539Z,1014.71
2023-03-15T06:16:13.564Z,1014.75
2023-03-15T06:17:13.773Z,1014.78
2023-03-15T06:18:14.053Z,1014.78
2023-03-15T06:19:13.267Z,1014.81
2023-03-15T06:20:13.192Z,1014.81
2023-03-15T06:21:13.575Z,1014.84
2023-03-15T06:22:13.895Z,1014.88
2023-03-15T06:23:13.007Z,1014.86
2023-03-15T06:24:12.995Z,1014.87
2023-03-15T06:25:12.901Z,1014.90
2023-03-15T06:26:12.986Z,1014.88
2023-03-15T06:27:12.913Z,1014.89
2023-03-15T06:28:12.930Z,1014.91
2023-03-15T06:29:12.924Z,1014.89
2023-03-15T06:30:14.858Z,1014.91
2023-03-15T06:31:12.939Z,1014.92
2023-03-15T06:32:13.256Z,1014.94
2023-03-15T06:33:13.208Z,1014.97
2023-03-15T06:34:13.402Z,1014.97
2023-03-15T06:35:13.423Z,1015.01
2023-03-15T06:36:13.702Z,1014.95
2023-03-15T06:37:16.287Z,1014.97
2023-03-15T06:38:13.604Z,1015.03
2023-03-15T06:39:13.814Z,1014.99
2023-03-15T06:40:13.673Z,1014.97
2023-03-15T06:41:13.594Z,1014.95
2023-03-15T06:42:13.860Z,1015.00
2023-03-15T06:43:13.903Z,1014.96
2023-03-15T06:44:13.016Z,1015.01
2023-03-15T06:45:13.579Z,1015.04
2023-03-15T06:46:13.590Z,1015.06
2023-03-15T06:47:13.637Z,1015.03
2023-03-15T06:48:13.585Z,1015.00
2023-03-15T06:49:13.493Z,1015.08
2023-03-15T06:50:13.564Z,1015.08
2023-03-15T06:51:13.513Z,1015.12
2023-03-15T06:52:13.690Z,1015.15
2023-03-15T06:53:13.653Z,1015.18
2023-03-15T06:54:13.783Z,1015.12
2023-03-15T06:55:13.804Z,1015.13
2023-03-15T06:56:14.002Z,1015.18
2023-03-15T06:57:12.961Z,1015.16
2023-03-15T06:58:13.935Z,1015.17
2023-03-15T06:59:13.194Z,1015.17
2023-03-15T07:00:13.043Z,1015.21
2023-03-15T07:01:13.020Z,1015.24
2023-03-15T07:02:13.012Z,1015.27
2023-03-15T07:03:13.368Z,1015.27
2023-03-15T07:04:13.347Z,1015.22
2023-03-15T07:05:13.375Z,1015.24
2023-03-15T07:06:13.663Z,1015.27
2023-03-15T07:07:14.005Z,1015.30
2023-03-15T07:08:12.984Z,1015.27
2023-03-15T07:09:12.959Z,1015.25
2023-03-15T07:10:12.876Z,1015.31
2023-03-15T07:11:13.762Z,1015.30
2023-03-15T07:12:13.912Z,1015.39
2023-03-15T07:13:12.878Z,1015.42
2023-03-15T07:14:13.980Z,1015.49
2023-03-15T07:15:13.637Z,1015.48
2023-03-15T07:16:13.532Z,1015.50
2023-03-15T07:17:13.781Z,1015.52
2023-03-15T07:18:13.684Z,1015.52
2023-03-15T07:19:13.781Z,1015.52
2023-03-15T07:20:13.693Z,1015.55
2023-03-15T07:21:13.704Z,1015.55
2023-03-15T07:22:13.850Z,1015.59
2023-03-15T07:23:13.804Z,1015.57
2023-03-15T07:24:13.791Z,1015.62
2023-03-15T07:25:13.980Z,1015.61
2023-03-15T07:26:12.984Z,1015.62
2023-03-15T07:27:15.335Z,1015.61
2023-03-15T07:28:13.197Z,1015.64
2023-03-15T07:29:13.272Z,1015.64
2023-03-15T07:30:13.135Z,1015.63
2023-03-15T07:31:13.080Z,1015.63
2023-03-15T07:32:13.009Z,1015.70
2023-03-15T07:33:13.318Z,1015.74
2023-03-15T07:34:13.213Z,1015.76
2023-03-15T07:35:13.570Z,1015.78
2023-03-15T07:36:13.595Z,1015.76
2023-03-15T07:37:13.938Z,1015.84
2023-03-15T07:38:12.942Z,1015.85
2023-03-15T07:39:12.920Z,1015.86
2023-03-15T07:40:12.853Z,1015.83
2023-03-15T07:41:14.065Z,1015.85
2023-03-15T07:42:13.009Z,1015.89
2023-03-15T07:43:12.843Z,1015.93
2023-03-15T07:44:13.704Z,1015.94
2023-03-15T07:45:13.746Z,1015.90
2023-03-15T07:46:13.802Z,1015.92
2023-03-15T07:47:13.823Z,1015.96
2023-03-15T07:48:13.822Z,1015.94
2023-03-15T07:49:13.898Z,1016.01
2023-03-15T07:50:14.601Z,1016.06
2023-03-15T07:51:13.530Z,1016.07
2023-03-15T07:52:13.371Z,1016.06
2023-03-15T07:53:13.210Z,1016.05
2023-03-15T07:54:13.070Z,1016.05
2023-03-15T07:55:12.999Z,1016.07
2023-03-15T07:56:12.942Z,1016.11
2023-03-15T07:57:13.261Z,1016.12
2023-03-15T07:58:13.330Z,1016.15
2023-03-15T07:59:13.287Z,1016.17
2023-03-15T08:00:13.145Z,1016.23
2023-03-15T08:01:13.534Z,1016.24
2023-03-15T08:02:13.475Z,1016.27
2023-03-15T08:03:13.470Z,1016.30
2023-03-15T08:04:13.671Z,1016.29
2023-03-15T08:05:13.771Z,1016.36
2023-03-15T08:06:13.578Z,1016.35
2023-03-15T08:07:13.549Z,1016.37
2023-03-15T08:08:13.479Z,1016.38
2023-03-15T08:09:13.413Z,1016.40
2023-03-15T08:10:13.492Z,1016.41
2023-03-15T08:11:13.442Z,1016.43
2023-03-15T08:12:13.485Z,1016.44
2023-03-15T08:13:13.416Z,1016.48
2023-03-15T08:14:13.349Z,1016.48
2023-03-15T08:15:13.637Z,1016.49
2023-03-15T08:16:13.915Z,1016.53
2023-03-15T08:17:12.936Z,1016.56
2023-03-15T08:18:12.934Z,1016.56
2023-03-15T08:19:13.991Z,1016.60
2023-03-15T08:20:14.171Z,1016.64
2023-03-15T08:21:13.574Z,1016.67
2023-03-15T08:22:13.650Z,1016.66
2023-03-15T08:23:13.826Z,1016.68
2023-03-15T08:24:13.892Z,1016.73
2023-03-15T08:25:13.056Z,1016.69
2023-03-15T08:26:13.090Z,1016.72
2023-03-15T08:27:13.001Z,1016.72
2023-03-15T08:28:13.422Z,1016.75
2023-03-15T08:29:13.376Z,1016.75
2023-03-15T08:30:13.361Z,1016.78
2023-03-15T08:31:13.332Z,1016.79
2023-03-15T08:32:13.201Z,1016.79
2023-03-15T08:33:13.602Z,1016.82
2023-03-15T08:34:13.733Z,1016.81
2023-03-15T08:35:15.784Z,1016.83
2023-03-15T08:36:12.912Z,1016.78
2023-03-15T08:37:13.019Z,1016.82
2023-03-15T08:38:13.076Z,1016.85
2023-03-15T08:39:12.950Z,1016.92
2023-03-15T08:40:12.999Z,1016.93
2023-03-15T08:41:13.120Z,1016.92
2023-03-15T08:42:13.071Z,1016.97
2023-03-15T08:43:12.978Z,1016.97
2023-03-15T08:44:12.939Z,1016.97
2023-03-15T08:45:12.938Z,1017.00
2023-03-15T08:46:13.061Z,1017.00
2023-03-15T08:47:13.273Z,1017.03
2023-03-15T08:48:13.562Z,1017.02
2023-03-15T08:49:13.546Z,1017.00
2023-03-15T08:50:13.594Z,1016.98
2023-03-15T08:51:13.732Z,1016.99
2023-03-15T08:52:17.090Z,1017.01
2023-03-15T08:53:13.192Z,1017.07
2023-03-15T08:54:13.201Z,1017.11
2023-03-15T08:55:13.314Z,1017.13
2023-03-15T08:56:13.376Z,1017.11
2023-03-15T08:57:13.308Z,1017.06
2023-03-15T08:58:13.551Z,1017.16
2023-03-15T08:59:19.465Z,1017.15
2023-03-15T09:00:13.808Z,1017.17
2023-03-15T09:01:14.006Z,1017.20
2023-03-15T09:02:13.205Z,1017.23
2023-03-15T09:03:13.687Z,1017.26
2023-03-15T09:04:13.793Z,1017.22
2023-03-15T09:05:13.783Z,1017.25
2023-03-15T09:06:14.253Z,1017.28
2023-03-15T09:07:13.157Z,1017.24
2023-03-15T09:08:13.081Z,1017.30
2023-03-15T09:09:13.225Z,1017.28
2023-03-15T09:10:13.555Z,1017.30
2023-03-15T09:11:13.444Z,1017.30
2023-03-15T09:12:13.731Z,1017.30
2023-03-15T09:13:13.589Z,1017.26
2023-03-15T09:14:13.799Z,1017.27
2023-03-15T09:15:13.814Z,1017.27
2023-03-15T09:16:14.301Z,1017.29
2023-03-15T09:17:13.820Z,1017.27
2023-03-15T09:18:13.737Z,1017.34
2023-03-15T09:19:13.964Z,1017.37
2023-03-15T09:20:13.004Z,1017.35
2023-03-15T09:21:13.255Z,1017.31
2023-03-15T09:22:17.177Z,1017.34
2023-03-15T09:23:13.956Z,1017.32
2023-03-15T09:24:12.845Z,1017.36
2023-03-15T09:25:13.849Z,1017.37
2023-03-15T09:26:13.792Z,1017.41
2023-03-15T09:27:13.755Z,1017.40
2023-03-15T09:28:13.872Z,1017.43
2023-03-15T09:29:14.187Z,1017.49
2023-03-15T09:30:13.241Z,1017.51
2023-03-15T09:31:13.388Z,1017.52
2023-03-15T09:32:13.796Z,1017.49
2023-03-15T09:33:13.679Z,1017.50
2023-03-15T09:34:13.708Z,1017.53
2023-03-15T09:35:13.725Z,1017.56
2023-03-15T09:36:13.672Z,1017.54
2023-03-15T09:37:19.108Z,1017.57
2023-03-15T09:38:13.443Z,1017.55
2023-03-15T09:39:13.463Z,1017.57
2023-03-15T09:40:13.727Z,1017.61
2023-03-15T09:41:13.761Z,1017.61
2023-03-15T09:42:13.671Z,1017.55
2023-03-15T09:43:18.762Z,1017.60
2023-03-15T09:44:13.664Z,1017.62
2023-03-15T09:45:13.515Z,1017.62
2023-03-15T09:46:13.475Z,1017.63
2023-03-15T09:47:13.375Z,1017.60
2023-03-15T09:48:13.961Z,1017.64
2023-03-15T09:49:13.046Z,1017.64
2023-03-15T09:50:13.158Z,1017.71
2023-03-15T09:51:13.071Z,1017.67
2023-03-15T09:52:13.321Z,1017.74
2023-03-15T09:53:13.669Z,1017.65
2023-03-15T09:54:14.047Z,1017.70
2023-03-15T09:55:13.034Z,1017.71
2023-03-15T09:56:13.118Z,1017.68
2023-03-15T09:57:13.442Z,1017.73
2023-03-15T09:58:13.594Z,1017.71
2023-03-15T09:59:13.937Z,1017.72
2023-03-15T10:00:13.097Z,1017.75
2023-03-15T10:01:13.440Z,1017.73
2023-03-15T10:02:13.414Z,1017.73
2023-03-15T10:03:13.421Z,1017.69
2023-03-15T10:04:13.451Z,1017.73
2023-03-15T10:05:13.934Z,1017.65
2023-03-15T10:06:13.013Z,1017.67
2023-03-15T10:07:12.888Z,1017.71
2023-03-15T10:08:12.882Z,1017.72
2023-03-15T10:09:12.867Z,1017.72
2023-03-15T10:10:13.811Z,1017.71
2023-03-15T10:11:14.018Z,1017.73
2023-03-15T10:12:13.438Z,1017.70
2023-03-15T10:13:13.429Z,1017.69
2023-03-15T10:14:13.338Z,1017.67
2023-03-15T10:15:13.838Z,1017.70
2023-03-15T10:16:13.933Z,1017.66
2023-03-15T10:17:14.416Z,1017.69
2023-03-15T10:18:18.491Z,1017.72
2023-03-15T10:19:13.543Z,1017.77
2023-03-15T10:20:13.441Z,1017.75
2023-03-15T10:21:13.391Z,1017.75
2023-03-15T10:22:13.407Z,1017.76
2023-03-15T10:23:13.595Z,1017.78
2023-03-15T10:24:13.422Z,1017.79
2023-03-15T10:25:18.795Z,1017.82
2023-03-15T10:26:13.298Z,1017.79
2023-03-15T10:27:13.626Z,1017.76
2023-03-15T10:28:13.551Z,1017.73
2023-03-15T10:29:13.599Z,1017.74
2023-03-15T10:30:13.552Z,1017.77
2023-03-15T10:31:22.252Z,1017.82
2023-03-15T10:32:13.730Z,1017.77
2023-03-15T10:33:13.594Z,1017.77
2023-03-15T10:34:13.689Z,1017.83
2023-03-15T10:35:13.970Z,1017.79
2023-03-15T10:36:12.939Z,1017.82
2023-03-15T10:37:12.898Z,1017.81
2023-03-15T10:38:12.805Z,1017.78
2023-03-15T10:39:13.746Z,1017.81
2023-03-15T10:40:13.919Z,1017.82
2023-03-15T10:41:15.212Z,1017.82
2023-03-15T10:42:13.351Z,1017.83
2023-03-15T10:43:13.417Z,1017.85
2023-03-15T10:44:13.618Z,1017.88
2023-03-15T10:45:13.865Z,1017.88
2023-03-15T10:46:13.995Z,1017.86
2023-03-15T10:47:23.190Z,1017.85
2023-03-15T10:48:13.800Z,1017.80
2023-03-15T10:49:14.354Z,1017.85
2023-03-15T10:50:13.587Z,1017.83
2023-03-15T10:51:13.778Z,1017.82
2023-03-15T10:52:13.726Z,1017.78
2023-03-15T10:53:13.816Z,1017.83
2023-03-15T10:54:13.665Z,1017.86
2023-03-15T10:55:13.605Z,1017.83
2023-03-15T10:56:13.503Z,1017.87
2023-03-15T10:57:13.734Z,1017.86
2023-03-15T10:58:13.652Z,1017.90
2023-03-15T10:59:14.352Z,1017.92
2023-03-15T11:00:13.327Z,1017.95
2023-03-15T11:01:13.475Z,1017.96
2023-03-15T11:02:13.532Z,1017.97
2023-03-15T11:03:13.673Z,1017.98
2023-03-15T11:04:13.772Z,1017.95
2023-03-15T11:05:14.013Z,1017.98
2023-03-15T11:06:12.948Z,1017.97
2023-03-15T11:07:13.217Z,1017.99
2023-03-15T11:08:13.216Z,1017.97
2023-03-15T11:09:13.084Z,1018.00
2023-03-15T11:10:13.692Z,1018.00
2023-03-15T11:11:14.020Z,1017.90
2023-03-15T11:12:13.352Z,1017.97
2023-03-15T11:13:13.748Z,1017.97
2023-03-15T11:14:13.953Z,1018.00
2023-03-15T11:15:13.044Z,1017.97
2023-03-15T11:16:13.196Z,1017.97
2023-03-15T11:17:13.331Z,1018.07
2023-03-15T11:18:13.471Z,1018.01
2023-03-15T11:19:13.469Z,1017.96
2023-03-15T11:20:13.428Z,1017.97
2023-03-15T11:21:13.497Z,1017.98
2023-03-15T11:22:13.531Z,1017.97
2023-03-15T11:23:13.517Z,1017.99
2023-03-15T11:24:13.709Z,1018.02
2023-03-15T11:25:14.121Z,1017.98
2023-03-15T11:26:19.035Z,1018.01
2023-03-15T11:27:13.212Z,1018.06
2023-03-15T11:28:13.283Z,1018.08
2023-03-15T11:29:13.677Z,1018.12
2023-03-15T11:30:13.837Z,1018.12
2023-03-15T11:31:13.983Z,1018.18
2023-03-15T11:32:12.949Z,1018.15
2023-03-15T11:33:12.849Z,1018.09
2023-03-15T11:34:13.937Z,1018.11
2023-03-15T11:35:13.101Z,1018.12
2023-03-15T11:36:13.137Z,1018.21
2023-03-15T11:37:13.328Z,1018.18
2023-03-15T11:38:15.476Z,1018.21
2023-03-15T11:39:12.926Z,1018.22
2023-03-15T11:40:14.505Z,1018.30
2023-03-15T11:41:13.438Z,1018.35
2023-03-15T11:42:13.383Z,1018.34
2023-03-15T11:43:13.330Z,1018.40
2023-03-15T11:44:13.193Z,1018.34
2023-03-15T11:45:13.156Z,1018.35
2023-03-15T11:46:13.226Z,1018.34
2023-03-15T11:47:13.192Z,1018.30
2023-03-15T11:48:13.234Z,1018.32
2023-03-15T11:49:13.500Z,1018.29
2023-03-15T11:50:13.581Z,1018.29
2023-03-15T11:51:13.616Z,1018.40
2023-03-15T11:52:13.889Z,1018.34
2023-03-15T11:53:13.158Z,1018.33
2023-03-15T11:54:13.007Z,1018.35
2023-03-15T11:55:13.012Z,1018.35
2023-03-15T11:56:12.981Z,1018.39
2023-03-15T11:57:12.970Z,1018.38
2023-03-15T11:58:13.015Z,1018.30
2023-03-15T11:59:13.215Z,1018.32
2023-03-15T12:00:13.364Z,1018.33
2023-03-15T12:01:13.362Z,1018.36
2023-03-15T12:02:13.405Z,1018.30
2023-03-15T12:03:13.809Z,1018.32
2023-03-15T12:04:15.807Z,1018.36
2023-03-15T12:05:18.330Z,1018.34
2023-03-15T12:06:13.643Z,1018.33